Aeroporto :
LOGIN :

Iscrizione | Disclaimer

   EN    FR    IT 

 










Sommario :    VFR   VFR Marginale   IFR   IFR Intensivo   IFR Molto Intensivo
Visibilità : 
Base nubi : 
>= 8 km
>= 3000ft
5 / 8 km
1000 / 3000 ft
1500m / 5 km
500 / 1000 ft
800 / 1500m
200 / 500 ft
< 800m
< 200 ft
Simboli :   Temporali  Nebbia  Neve Forte  Precipitazioni Forti  Vento > 20 kt
SIGMETs :   Varie  Temporali  Ghiacco  Turbolenza  Onda orograficha  Ceneri Vulcaniche






- Altitudine del aeroporto : 472 ft
- Codice IATA : GME


UMGG - Gomel

ULTIMO METAR :
  • 021630Z 25006MPS CAVOK 08/M03 Q1009 R28/CLRD// NOSIG

METARs OBSOLETI :
  • 021600Z 25006MPS CAVOK 08/M03 Q1009 R28/CLRD// NOSIG
  • 021530Z 26006G09MPS CAVOK 08/M06 Q1009 R28/CLRD// NOSIG
  • 021500Z 25007G10MPS CAVOK 08/M06 Q1009 R28/D NOSIG
  • 021430Z 24007G10MPS CAVOK 09/M04 Q1009 R28/CLRD// NOSIG
  • 021400Z 24008G11MPS CAVOK 09/M04 Q1009 R28/D NOSIG

TAF COR TAF UMGG
Valido dal 02 a 12 ore il 03 a 12 ore UTC


021100Z 0212/0312 23007G12MPS 9999 BKN015
TEMPO 0212/0218 25010G15MPS 2100 A SHRA BKN007 SCT020CB
TEMPO 0218/0303 2000 BR BKN005
TEMPO 0303/0312 23012G17MPS



MetMap, La meteo Aeronautica in un colpo d'occhio ! - Copyright ORBIFLY Dicembre 2007 - Disclaimer

ORBIFLY MET'MAP TEAM :

Programmazione e sviluppo : Alexandra Zaïnal
Concezione : Baudouin d'Aumeries
Aiuto per la programmazione : Marc-Olivier Méhu
Supporto tecnico e logistico : Manuel Goepfert
Aiuto per la traduzione : Arnaldo La Scala

Contatto : metmap@orbifly.com




FONTI E CREDITI :

   NOAA